world map with BRM marked

BRM - Airport

This information may not be accurate or current and is not valid for navigation or flight planning. No warranty of fitness for any purpose is made or implied.

flag of Venezuela

Donate via PayPal

Additional information is available on the NEW Great Circle Mapper

Location
City:  Barquisimeto, Lara, Venezuela
Name:Jacinto Lara International Airport
ICAO / IATA:SVBM / BRM

Details
Type:Airport (Aerodrome, Airfield)
Use:Public/Civil, Military
Latitude:10°02'34"N (10.042747)
Longitude:69°21'31"W (-69.358618)
Datum:WGS 1984
Elevation:2042 ft (622 m)
Runways:1
Longest:9350 × 147 ft (2850 × 45 m)

Time
Timezone:UTC+30:08 (DST+32:08)
Local Time:

Weather
METAR:SVBM  041400Z 09003KT 9999 FEW016 23/17 Q1016
TAF:SVBM  (expired)

Related Locations
Nearby:
Farthest:JOG: 12274 mi / 19754 km
Yogyakarta [Adisucipto Intl (Jogja Airport)], YO, ID

Find:

   beyond  
but within

Other Information
Maps:
Sources:

  


 


Great Circle Mapper   Great Circle Mapper
Great Circle Mapper FAQ   Great Circle Mapper FAQ
  Karl's Home Page
KLSē   KLSē Home
   GC on Facebook
Airlines of the World   Airlines of the World
Donate via PayPal


Copyright © 2004-2019, Karl L. Swartz. All rights reserved.
All trademarks mentioned herein belong to their respective owners.

Please see credits for attribution and copyright information.

Karl Swartz <karl@kls2.com>
  Powered by FreeBSD
Valid HTML 4.01!
Labeled with ICRA
hCard Microformat
Geo Microformat